Latest Coastal Weather Observations for Horn Island

IDQ60701

Issued at 7:51 pm EST Wednesday 4 May 2016 (issued every 10 minutes, with the page automatically refreshed every 10 minutes)

About coastal observations | Map of coastal stations | Coastal observations for QLD | Marine services | Other Formats
Station Details ID: 027058 Name: HORN ISLAND Lat: -10.58 Lon: 142.29 Height: 4.0 m
Data from the previous 72 hours. | See also: Recent months at Horn Island
Date/Time
EST
Temp

°C
Wind Pressure Rain
since 9am
mm
Weather Cloud Vis
km
Sea
Height
m
Swell
Dir
 
Speed
knots
Gust
knots
hPa Trend Height
m
Period
s
Dir
04/07:30pm 27.7 SE 10 13 1010.6 - 0.0 - - 10 - - - -
04/07:00pm 27.9 SE 11 16 1010.3 - 0.0 - - 10 - - - -
04/06:30pm 28.0 SE 12 15 1009.8 - 0.0 - - 10 - - - -
04/06:00pm 28.5 ESE 13 17 1009.5 - 0.0 - - 10 - - - -
04/05:30pm 29.1 ESE 12 16 1009.2 - 0.0 - - 10 - - - -
04/05:00pm 29.4 ESE 12 16 1009.0 - 0.0 - Partly cloudy 10 - - - -
04/04:30pm 30.1 ESE 13 17 1008.8 - 0.0 - - 10 - - - -
04/04:00pm 29.8 ESE 12 17 1008.9 - 0.0 - - 10 - - - -
04/03:30pm 30.0 E 13 18 1009.0 - 0.0 - - 10 - - - -
04/03:00pm 30.0 E 13 18 1009.2 - 0.0 - - 10 - - - -
04/02:30pm 30.4 E 14 19 1009.6 - 0.0 - - 10 - - - -
04/02:00pm 30.6 E 16 19 1010.2 - 0.0 - - 10 - - - -
04/01:30pm 30.6 ESE 14 19 1010.5 - 0.0 - - 10 - - - -
04/01:00pm 30.3 ESE 15 19 1011.1 - 0.0 - - 10 - - - -
04/12:30pm 30.7 ESE 13 19 1011.5 - 0.0 - Partly cloudy 10 - - - -
04/12:00pm 30.7 ESE 12 16 1011.9 - 0.0 - - 10 - - - -
04/11:30am 30.1 ESE 14 18 1012.4 - 0.0 - - 10 - - - -
04/11:00am 30.3 ESE 12 16 1012.8 - 0.0 - - 10 - - - -
04/10:30am 29.5 ESE 12 17 1013.1 - 0.0 - Partly cloudy 10 - - - -
04/10:00am 29.6 ESE 13 17 1013.2 - 0.0 - Partly cloudy 10 - - - -
04/09:30am 29.0 ESE 11 14 1013.3 - 0.0 - Partly cloudy 10 - - - -
04/09:00am 29.0 ESE 10 14 1013.2 - 0.0 - Partly cloudy 10 - - - -
04/08:30am 28.6 ESE 11 15 1013.2 - 0.0 - - 10 - - - -
04/08:00am 27.8 SE 10 13 1013.0 - 0.0 - - 10 - - - -
04/07:30am 27.5 ESE 7 9 1012.7 - 0.0 - - 10 - - - -
04/07:00am 27.1 ESE 7 11 1012.3 - 0.0 - - 10 - - - -
04/06:30am 27.0 ESE 8 11 1012.0 - 0.0 - - 10 - - - -
04/06:00am 26.8 ESE 7 9 1011.6 - 0.0 - - 10 - - - -
04/05:30am 26.9 ESE 8 11 1011.1 - 0.0 - - 10 - - - -
04/05:00am 26.9 ESE 7 9 1010.9 - 0.0 - - 10 - - - -
04/04:30am 26.8 ESE 7 10 1010.6 - 0.0 - - 10 - - - -
04/04:00am 26.6 ESE 7 8 1010.4 - 0.0 - - 10 - - - -
04/03:30am 26.6 SE 6 9 1010.5 - 0.0 - - 10 - - - -
04/03:00am 26.7 SE 7 8 1010.7 - 0.0 - - 10 - - - -
04/02:30am 27.1 SE 8 12 1010.9 - 0.0 - Partly cloudy 10 - - - -
04/02:00am 27.1 SE 8 11 1011.0 - 0.0 - Partly cloudy 10 - - - -
04/01:30am 27.3 ESE 9 13 1011.3 - 0.0 - Partly cloudy 10 - - - -
04/01:00am 27.2 ESE 7 11 1011.7 - 0.0 - Partly cloudy 10 - - - -
04/12:30am 27.1 SE 8 10 1012.0 - 0.0 - - 10 - - - -
04/12:00am 27.2 SE 7 9 1012.1 - 0.0 - Mostly clear 10 - - - -
 
Date/Time
EST
Temp

°C
Wind Pressure Rain
since 9am
mm
Weather Cloud Vis
km
Sea
Height
m
Swell
Dir
 
Speed
knots
Gust
knots
hPa Trend Height
m
Period
s
Dir
03/11:30pm 27.3 SE 8 11 1012.3 - 0.0 - Partly cloudy 10 - - - -
03/11:00pm 27.4 SE 8 11 1012.4 - 0.0 - - 10 - - - -
03/10:30pm 27.5 ESE 9 13 1012.4 - 0.0 - Partly cloudy 10 - - - -
03/10:00pm 27.5 SE 9 14 1012.5 - 0.0 - - 10 - - - -
03/09:30pm 27.5 SE 9 13 1012.3 - 0.0 - - 10 - - - -
03/09:00pm 27.7 SE 9 13 1012.3 - 0.0 - - 10 - - - -
03/08:30pm 27.7 SE 8 12 1012.2 - 0.0 - - 10 - - - -
03/08:00pm 27.8 SE 9 14 1011.7 - 0.0 - - 10 - - - -
03/07:30pm 27.9 SE 10 14 1011.4 - 0.0 - - 10 - - - -
03/07:00pm 28.0 ESE 10 14 1011.0 - 0.0 - - 10 - - - -
03/06:30pm 28.2 ESE 9 11 1010.5 - 0.0 - - 10 - - - -
03/06:00pm 28.6 ESE 10 13 1010.3 - 0.0 - - 10 - - - -
03/05:30pm 28.9 ESE 11 15 1010.0 - 0.0 - - 10 - - - -
03/05:00pm 29.5 ESE 12 15 1009.7 - 0.0 - - 10 - - - -
03/04:30pm 30.1 E 12 18 1009.6 - 0.0 - - 10 - - - -
03/04:00pm 29.8 E 11 14 1009.5 - 0.0 - - 10 - - - -
03/03:30pm 30.0 E 12 15 1009.5 - 0.0 - - 10 - - - -
03/03:00pm 30.0 E 13 16 1009.6 - 0.0 - - 10 - - - -
03/02:30pm 29.9 E 13 16 1009.7 - 0.0 - - 10 - - - -
03/02:00pm 30.7 ESE 12 17 1009.8 - 0.0 - - 10 - - - -
03/01:30pm 30.4 E 14 19 1010.1 - 0.0 - - 10 - - - -
03/01:00pm 30.5 E 13 17 1010.5 - 0.0 - - 10 - - - -
03/12:30pm 30.5 E 13 17 1010.9 - 0.0 - - 10 - - - -
03/12:00pm 30.6 ESE 12 16 1011.5 - 0.0 - - 10 - - - -
03/11:30am 29.9 ESE 15 19 1011.8 - 0.0 - Partly cloudy 10 - - - -
03/11:00am 30.0 ESE 14 18 1012.2 - 0.0 - Partly cloudy 10 - - - -
03/10:30am 29.9 ESE 13 17 1012.4 - 0.0 - Partly cloudy 10 - - - -
03/10:00am 30.0 ESE 13 18 1012.7 - 0.0 - Partly cloudy 10 - - - -
03/09:30am 29.4 ESE 12 16 1012.8 - 0.0 - Partly cloudy 10 - - - -
03/09:00am 28.8 SE 10 15 1012.8 - 0.0 - Partly cloudy 10 - - - -
03/08:30am 28.2 SE 8 11 1012.6 - 0.0 - Partly cloudy 10 - - - -
03/08:00am 28.1 SE 8 11 1012.3 - 0.0 - - 10 - - - -
03/07:30am 27.0 SSE 5 7 1012.1 - 0.0 - Partly cloudy 10 - - - -
03/07:00am 26.5 SSE 4 6 1011.8 - 0.0 - Partly cloudy 10 - - - -
03/06:30am 26.5 S 5 7 1011.5 - 0.0 - - 10 - - - -
03/06:00am 26.6 S 6 9 1011.3 - 0.0 - Mostly clear 10 - - - -
03/05:30am 26.6 SSE 7 11 1011.0 - 0.0 - Partly cloudy 10 - - - -
03/05:00am 26.7 SE 5 7 1010.7 - 0.0 - Partly cloudy 10 - - - -
03/04:30am 26.7 SE 5 7 1010.6 - 0.0 - - 10 - - - -
03/04:00am 26.7 SSE 6 8 1010.5 - 0.0 - Partly cloudy 10 - - - -
03/03:30am 26.7 SSE 6 7 1010.5 - 0.0 - - 10 - - - -
03/03:00am 26.9 SSE 7 9 1010.5 - 0.0 - - 10 - - - -
03/02:30am 26.9 SSE 8 11 1010.7 - 0.0 - Partly cloudy 10 - - - -
03/02:00am 27.3 SSE 7 9 1011.2 - 0.0 - Partly cloudy 10 - - - -
03/01:30am 27.1 SE 6 7 1011.3 - 0.0 - Partly cloudy 10 - - - -
03/01:00am 27.0 SE 5 8 1011.4 - 0.0 - Partly cloudy 10 - - - -
03/12:30am 27.0 SSE 6 7 1011.8 - 0.0 - Partly cloudy 10 - - - -
03/12:00am 27.1 SSE 6 7 1011.8 - 0.0 - Partly cloudy 9 - - - -
 
Date/Time
EST
Temp

°C
Wind Pressure Rain
since 9am
mm
Weather Cloud Vis
km
Sea
Height
m
Swell
Dir
 
Speed
knots
Gust
knots
hPa Trend Height
m
Period
s
Dir
02/11:30pm 27.2 SE 5 8 1012.1 - 0.0 - - 10 - - - -
02/11:00pm 27.5 SE 7 9 1012.2 - 0.0 - Partly cloudy 9 - - - -
02/10:30pm 27.5 SSE 6 8 1012.1 - 0.0 - Partly cloudy 10 - - - -
02/10:00pm 27.6 SSE 6 8 1012.1 - 0.0 - Partly cloudy 9 - - - -
02/09:30pm 27.7 SSE 6 8 1012.1 - 0.0 - - 10 - - - -
02/09:00pm 27.9 SSE 8 11 1012.1 - 0.0 - Mostly clear 10 - - - -
02/08:30pm 28.0 SE 9 12 1011.9 - 0.0 - - 10 - - - -
02/08:00pm 28.0 SE 7 9 1011.9 - 0.0 - - 10 - - - -
02/07:30pm 28.1 SE 9 12 1011.3 - 0.0 - - 10 - - - -
02/07:00pm 28.3 ESE 10 14 1010.9 - 0.0 - - 10 - - - -
02/06:30pm 28.3 ESE 9 13 1010.5 - 0.0 - - 10 - - - -
02/06:00pm 28.7 SE 10 14 1010.0 - 0.0 - Mostly clear 10 - - - -
02/05:30pm 29.2 ESE 13 18 1009.6 - 0.0 - - 10 - - - -
02/05:00pm 29.6 ESE 12 16 1009.5 - 0.0 - - 10 - - - -
02/04:30pm 29.6 ESE 14 17 1009.3 - 0.0 - - 10 - - - -
02/04:00pm 30.0 E 13 17 1009.2 - 0.0 - - 10 - - - -
02/03:30pm 30.3 E 14 19 1009.5 - 0.0 - - 10 - - - -
02/03:00pm 30.3 E 14 20 1009.6 - 0.0 - Mostly clear 10 - - - -
02/02:30pm 30.5 E 13 19 1009.7 - 0.0 - - 10 - - - -
02/02:00pm 30.4 ESE 13 19 1009.9 - 0.0 - Partly cloudy 10 - - - -
02/01:30pm 30.4 E 14 19 1010.0 - 0.0 - - 10 - - - -
02/01:00pm 30.7 ESE 16 21 1010.5 - 0.0 - - 10 - - - -
02/12:30pm 30.6 E 16 21 1011.0 - 0.0 - - 10 - - - -
02/12:00pm 30.6 E 16 21 1011.3 - 0.0 - - 10 - - - -
02/11:30am 30.4 ESE 15 21 1011.7 - 0.0 - - 10 - - - -
02/11:00am 30.4 ESE 15 19 1011.9 - 0.0 - - 10 - - - -
02/10:30am 30.4 ESE 14 19 1012.3 - 0.0 - Partly cloudy 10 - - - -
02/10:00am 30.2 ESE 15 21 1012.2 - 0.0 - - 10 - - - -
02/09:30am 29.9 ESE 12 16 1012.0 - 0.0 - Partly cloudy 10 - - - -
02/09:00am 28.6 ESE 12 18 1012.1 - 0.0 - Mostly clear 10 - - - -
02/08:30am 28.6 ESE 11 16 1011.8 - 0.0 - Partly cloudy 9 - - - -
02/08:00am 28.3 ESE 11 16 1011.7 - 0.0 - Partly cloudy 9 - - - -
02/07:30am 27.8 SE 9 14 1011.5 - 0.0 - Partly cloudy 9 - - - -
02/07:00am 27.6 ESE 9 11 1011.3 - 0.0 - Partly cloudy 9 - - - -
02/06:30am 27.6 ESE 10 14 1010.9 - 0.0 - Partly cloudy 10 - - - -
02/06:00am 27.4 SE 8 12 1010.6 - 0.0 - Mostly clear 8 - - - -
02/05:30am 27.5 SE 8 11 1010.5 - 0.0 - Partly cloudy 9 - - - -
02/05:00am 27.5 SE 9 14 1010.1 - 0.0 - Partly cloudy 8 - - - -
02/04:30am 27.5 SE 10 14 1010.0 - 0.0 - - 8 - - - -
02/04:00am 27.5 SE 10 13 1009.8 - 0.0 - Partly cloudy 8 - - - -
02/03:30am 27.5 SE 10 14 1009.8 - 0.0 - Partly cloudy 7 - - - -
02/03:00am 27.8 SE 10 14 1010.1 - 0.0 - Cloudy 8 - - - -
02/02:30am 27.7 ESE 10 13 1010.0 - 0.0 - Partly cloudy 8 - - - -
02/02:00am 27.7 ESE 10 15 1010.0 - 0.0 - Partly cloudy 8 - - - -
02/01:30am 27.7 SE 11 15 1010.4 - 0.0 - Partly cloudy 8 - - - -
02/01:00am 27.8 ESE 10 13 1010.8 - 0.0 - Partly cloudy 8 - - - -
02/12:30am 27.7 ESE 9 14 1011.2 - 0.0 - Partly cloudy 8 - - - -
02/12:00am 27.7 SE 7 10 1011.4 - 0.0 - Mostly clear 7 - - - -
 
Date/Time
EST
Temp

°C
Wind Pressure Rain
since 9am
mm
Weather Cloud Vis
km
Sea
Height
m
Swell
Dir
 
Speed
knots
Gust
knots
hPa Trend Height
m
Period
s
Dir
01/11:30pm 27.8 ESE 9 13 1011.4 - 0.0 - Partly cloudy 7 - - - -
01/11:21pm 27.8 ESE 10 14 1011.5 - 0.0 - Partly cloudy 8 - - - -
01/11:00pm 27.9 SE 8 12 1011.5 - 0.0 - Partly cloudy 7 - - - -
01/10:55pm 27.9 SE 9 13 1011.5 - 0.0 - Partly cloudy 7 - - - -
01/10:30pm 27.9 ESE 10 13 1011.5 - 0.0 - Partly cloudy 7 - - - -
01/10:00pm 27.9 SE 9 12 1011.6 - 0.0 - - 8 - - - -
01/09:30pm 28.0 ESE 10 14 1011.7 - 0.0 - - 8 - - - -
01/09:00pm 28.1 SE 11 15 1011.6 - 0.0 - - 8 - - - -
01/08:30pm 28.0 SE 9 12 1011.4 - 0.0 - - 8 - - - -
01/08:00pm 28.2 ESE 10 13 1011.3 - 0.0 - - 8 - - - -

Other Formats:

Comma delimited format used in spreadsheet applications
http://www.bom.gov.au/fwo/IDQ60701/IDQ60701.94174.axf

JavaScript Object Notation format (JSON) in row-major order
http://www.bom.gov.au/fwo/IDQ60701/IDQ60701.94174.json